sensor_id;sensor_type;location;lat;lon;timestamp;temperature;humidity
26212;DHT22;13951;49.516;6.094;2022-09-09T00:02:18;17.40;99.90
26212;DHT22;13951;49.516;6.094;2022-09-09T00:07:53;17.40;99.90
26212;DHT22;13951;49.516;6.094;2022-09-09T00:10:39;17.40;99.90
26212;DHT22;13951;49.516;6.094;2022-09-09T00:16:21;17.40;99.90
26212;DHT22;13951;49.516;6.094;2022-09-09T00:19:22;17.40;99.90
26212;DHT22;13951;49.516;6.094;2022-09-09T00:24:51;17.30;99.90
26212;DHT22;13951;49.516;6.094;2022-09-09T00:27:31;17.30;99.90
26212;DHT22;13951;49.516;6.094;2022-09-09T00:30:24;17.40;99.90
26212;DHT22;13951;49.516;6.094;2022-09-09T00:33:10;17.40;99.90
26212;DHT22;13951;49.516;6.094;2022-09-09T00:35:49;17.30;99.90
26212;DHT22;13951;49.516;6.094;2022-09-09T00:38:38;17.30;99.90
26212;DHT22;13951;49.516;6.094;2022-09-09T00:44:32;17.40;99.90
26212;DHT22;13951;49.516;6.094;2022-09-09T00:50:01;17.40;99.90
26212;DHT22;13951;49.516;6.094;2022-09-09T00:52:52;17.30;99.90
26212;DHT22;13951;49.516;6.094;2022-09-09T00:55:39;17.30;99.90
26212;DHT22;13951;49.516;6.094;2022-09-09T00:58:13;17.20;99.90
26212;DHT22;13951;49.516;6.094;2022-09-09T01:00:50;17.20;99.90
26212;DHT22;13951;49.516;6.094;2022-09-09T01:06:16;17.10;99.90
26212;DHT22;13951;49.516;6.094;2022-09-09T01:09:17;17.00;99.90
26212;DHT22;13951;49.516;6.094;2022-09-09T01:17:23;17.00;99.90
26212;DHT22;13951;49.516;6.094;2022-09-09T01:24:00;17.10;99.90
26212;DHT22;13951;49.516;6.094;2022-09-09T01:26:50;17.10;99.90
26212;DHT22;13951;49.516;6.094;2022-09-09T01:29:29;17.10;99.90
26212;DHT22;13951;49.516;6.094;2022-09-09T01:32:39;17.10;99.90
26212;DHT22;13951;49.516;6.094;2022-09-09T01:38:20;17.00;99.90
26212;DHT22;13951;49.516;6.094;2022-09-09T01:40:55;17.00;99.90
26212;DHT22;13951;49.516;6.094;2022-09-09T01:43:34;17.00;99.90
26212;DHT22;13951;49.516;6.094;2022-09-09T01:46:07;17.00;99.90
26212;DHT22;13951;49.516;6.094;2022-09-09T01:48:42;17.00;99.90
26212;DHT22;13951;49.516;6.094;2022-09-09T01:51:16;17.00;99.90
26212;DHT22;13951;49.516;6.094;2022-09-09T01:53:51;17.00;99.90
26212;DHT22;13951;49.516;6.094;2022-09-09T01:59:41;17.00;99.90
26212;DHT22;13951;49.516;6.094;2022-09-09T02:02:19;17.00;99.90
26212;DHT22;13951;49.516;6.094;2022-09-09T02:08:14;17.00;99.90
26212;DHT22;13951;49.516;6.094;2022-09-09T02:11:03;17.10;99.90
26212;DHT22;13951;49.516;6.094;2022-09-09T02:13:47;17.10;99.90
26212;DHT22;13951;49.516;6.094;2022-09-09T02:19:14;17.10;99.90
26212;DHT22;13951;49.516;6.094;2022-09-09T02:22:01;17.20;99.90
26212;DHT22;13951;49.516;6.094;2022-09-09T02:24:37;17.10;99.90
26212;DHT22;13951;49.516;6.094;2022-09-09T02:27:18;17.10;99.90
26212;DHT22;13951;49.516;6.094;2022-09-09T02:29:52;17.10;99.90
26212;DHT22;13951;49.516;6.094;2022-09-09T02:32:38;17.10;99.90
26212;DHT22;13951;49.516;6.094;2022-09-09T02:35:19;17.10;99.90
26212;DHT22;13951;49.516;6.094;2022-09-09T02:37:55;17.00;99.90
26212;DHT22;13951;49.516;6.094;2022-09-09T02:40:29;17.00;99.90
26212;DHT22;13951;49.516;6.094;2022-09-09T02:43:06;16.90;99.90
26212;DHT22;13951;49.516;6.094;2022-09-09T02:45:47;16.90;99.90
26212;DHT22;13951;49.516;6.094;2022-09-09T02:48:44;16.90;99.90
26212;DHT22;13951;49.516;6.094;2022-09-09T02:51:39;16.90;99.90
26212;DHT22;13951;49.516;6.094;2022-09-09T02:54:30;16.90;99.90
26212;DHT22;13951;49.516;6.094;2022-09-09T02:57:25;16.90;99.90
26212;DHT22;13951;49.516;6.094;2022-09-09T03:00:00;16.80;99.90
26212;DHT22;13951;49.516;6.094;2022-09-09T03:02:36;16.80;99.90
26212;DHT22;13951;49.516;6.094;2022-09-09T03:05:11;16.80;99.90
26212;DHT22;13951;49.516;6.094;2022-09-09T03:07:46;16.70;99.90
26212;DHT22;13951;49.516;6.094;2022-09-09T03:10:21;16.70;99.90
26212;DHT22;13951;49.516;6.094;2022-09-09T03:12:53;16.60;99.90
26212;DHT22;13951;49.516;6.094;2022-09-09T03:15:27;16.60;99.90
26212;DHT22;13951;49.516;6.094;2022-09-09T03:18:02;16.60;99.90
26212;DHT22;13951;49.516;6.094;2022-09-09T03:20:35;16.60;99.90
26212;DHT22;13951;49.516;6.094;2022-09-09T03:23:08;16.60;99.90
26212;DHT22;13951;49.516;6.094;2022-09-09T03:25:48;16.60;99.90
26212;DHT22;13951;49.516;6.094;2022-09-09T03:28:24;16.70;99.90
26212;DHT22;13951;49.516;6.094;2022-09-09T03:31:05;16.60;99.90
26212;DHT22;13951;49.516;6.094;2022-09-09T03:33:43;16.60;99.90
26212;DHT22;13951;49.516;6.094;2022-09-09T03:36:19;16.60;99.90
26212;DHT22;13951;49.516;6.094;2022-09-09T03:38:52;16.70;99.90
26212;DHT22;13951;49.516;6.094;2022-09-09T03:41:25;16.70;99.90
26212;DHT22;13951;49.516;6.094;2022-09-09T03:43:58;16.70;99.90
26212;DHT22;13951;49.516;6.094;2022-09-09T03:46:34;16.60;99.90
26212;DHT22;13951;49.516;6.094;2022-09-09T03:49:07;16.70;99.90
26212;DHT22;13951;49.516;6.094;2022-09-09T03:51:40;16.60;99.90
26212;DHT22;13951;49.516;6.094;2022-09-09T03:54:15;16.60;99.90
26212;DHT22;13951;49.516;6.094;2022-09-09T03:56:48;16.60;99.90
26212;DHT22;13951;49.516;6.094;2022-09-09T03:59:21;16.60;99.90
26212;DHT22;13951;49.516;6.094;2022-09-09T04:01:54;16.60;99.90
26212;DHT22;13951;49.516;6.094;2022-09-09T04:04:27;16.60;99.90
26212;DHT22;13951;49.516;6.094;2022-09-09T04:07:00;16.60;99.90
26212;DHT22;13951;49.516;6.094;2022-09-09T04:09:34;16.60;99.90
26212;DHT22;13951;49.516;6.094;2022-09-09T04:12:07;16.60;99.90
26212;DHT22;13951;49.516;6.094;2022-09-09T04:14:40;16.60;99.90
26212;DHT22;13951;49.516;6.094;2022-09-09T04:17:13;16.60;99.90
26212;DHT22;13951;49.516;6.094;2022-09-09T04:19:46;16.50;99.90
26212;DHT22;13951;49.516;6.094;2022-09-09T04:22:20;16.50;99.90
26212;DHT22;13951;49.516;6.094;2022-09-09T04:24:52;16.60;99.90
26212;DHT22;13951;49.516;6.094;2022-09-09T04:27:25;16.60;99.90
26212;DHT22;13951;49.516;6.094;2022-09-09T04:29:59;16.50;99.90
26212;DHT22;13951;49.516;6.094;2022-09-09T04:32:33;16.60;99.90
26212;DHT22;13951;49.516;6.094;2022-09-09T04:35:06;16.60;99.90
26212;DHT22;13951;49.516;6.094;2022-09-09T04:37:39;16.60;99.90
26212;DHT22;13951;49.516;6.094;2022-09-09T04:40:13;16.70;99.90
26212;DHT22;13951;49.516;6.094;2022-09-09T04:42:46;16.60;99.90
26212;DHT22;13951;49.516;6.094;2022-09-09T04:45:20;16.60;99.90
26212;DHT22;13951;49.516;6.094;2022-09-09T04:47:53;16.60;99.90
26212;DHT22;13951;49.516;6.094;2022-09-09T04:50:27;16.50;99.90
26212;DHT22;13951;49.516;6.094;2022-09-09T04:53:04;16.50;99.90
26212;DHT22;13951;49.516;6.094;2022-09-09T04:55:39;16.50;99.90
26212;DHT22;13951;49.516;6.094;2022-09-09T04:58:12;16.60;99.90
26212;DHT22;13951;49.516;6.094;2022-09-09T05:00:45;16.60;99.90
26212;DHT22;13951;49.516;6.094;2022-09-09T05:03:19;16.50;99.90
26212;DHT22;13951;49.516;6.094;2022-09-09T05:05:51;16.50;99.90
26212;DHT22;13951;49.516;6.094;2022-09-09T05:08:25;16.50;99.90
26212;DHT22;13951;49.516;6.094;2022-09-09T05:10:59;16.50;99.90
26212;DHT22;13951;49.516;6.094;2022-09-09T05:13:32;16.50;99.90
26212;DHT22;13951;49.516;6.094;2022-09-09T05:16:05;16.50;99.90
26212;DHT22;13951;49.516;6.094;2022-09-09T05:18:39;16.60;99.90
26212;DHT22;13951;49.516;6.094;2022-09-09T05:21:14;16.60;99.90
26212;DHT22;13951;49.516;6.094;2022-09-09T05:23:48;16.60;99.90
26212;DHT22;13951;49.516;6.094;2022-09-09T05:26:21;16.60;99.90
26212;DHT22;13951;49.516;6.094;2022-09-09T05:28:58;16.50;99.90
26212;DHT22;13951;49.516;6.094;2022-09-09T05:31:33;16.50;99.90
26212;DHT22;13951;49.516;6.094;2022-09-09T05:34:11;16.60;99.90
26212;DHT22;13951;49.516;6.094;2022-09-09T05:36:44;16.60;99.90
26212;DHT22;13951;49.516;6.094;2022-09-09T05:39:18;16.50;99.90
26212;DHT22;13951;49.516;6.094;2022-09-09T05:41:51;16.50;99.90
26212;DHT22;13951;49.516;6.094;2022-09-09T05:44:24;16.60;99.90
26212;DHT22;13951;49.516;6.094;2022-09-09T05:47:00;16.60;99.90
26212;DHT22;13951;49.516;6.094;2022-09-09T05:49:33;16.50;99.90
26212;DHT22;13951;49.516;6.094;2022-09-09T05:52:05;16.50;99.90
26212;DHT22;13951;49.516;6.094;2022-09-09T05:54:39;16.50;99.90
26212;DHT22;13951;49.516;6.094;2022-09-09T05:57:14;16.50;99.90
26212;DHT22;13951;49.516;6.094;2022-09-09T05:59:49;16.60;99.90
26212;DHT22;13951;49.516;6.094;2022-09-09T06:02:22;16.60;99.90
26212;DHT22;13951;49.516;6.094;2022-09-09T06:04:55;16.60;99.90
26212;DHT22;13951;49.516;6.094;2022-09-09T06:07:33;16.60;99.90
26212;DHT22;13951;49.516;6.094;2022-09-09T06:10:07;16.60;99.90
26212;DHT22;13951;49.516;6.094;2022-09-09T06:12:40;16.60;99.90
26212;DHT22;13951;49.516;6.094;2022-09-09T06:15:13;16.70;99.90
26212;DHT22;13951;49.516;6.094;2022-09-09T06:17:46;16.70;99.90
26212;DHT22;13951;49.516;6.094;2022-09-09T06:20:19;16.70;99.90
26212;DHT22;13951;49.516;6.094;2022-09-09T06:22:52;16.80;99.90
26212;DHT22;13951;49.516;6.094;2022-09-09T06:25:25;16.80;99.90
26212;DHT22;13951;49.516;6.094;2022-09-09T06:27:58;16.90;99.90
26212;DHT22;13951;49.516;6.094;2022-09-09T06:30:31;16.90;99.90
26212;DHT22;13951;49.516;6.094;2022-09-09T06:33:03;17.00;99.90
26212;DHT22;13951;49.516;6.094;2022-09-09T06:35:36;17.00;99.90
26212;DHT22;13951;49.516;6.094;2022-09-09T06:38:09;17.00;99.90
26212;DHT22;13951;49.516;6.094;2022-09-09T06:40:42;17.00;99.90
26212;DHT22;13951;49.516;6.094;2022-09-09T06:43:15;17.00;99.90
26212;DHT22;13951;49.516;6.094;2022-09-09T06:46:02;17.10;99.90
26212;DHT22;13951;49.516;6.094;2022-09-09T06:48:39;17.10;99.90
26212;DHT22;13951;49.516;6.094;2022-09-09T06:51:18;17.20;99.90
26212;DHT22;13951;49.516;6.094;2022-09-09T06:53:55;17.30;99.90
26212;DHT22;13951;49.516;6.094;2022-09-09T06:56:31;17.30;99.90
26212;DHT22;13951;49.516;6.094;2022-09-09T06:59:07;17.30;99.90
26212;DHT22;13951;49.516;6.094;2022-09-09T07:01:42;17.30;99.90
26212;DHT22;13951;49.516;6.094;2022-09-09T07:04:24;17.40;99.90
26212;DHT22;13951;49.516;6.094;2022-09-09T07:06:57;17.40;99.90
26212;DHT22;13951;49.516;6.094;2022-09-09T07:09:31;17.40;99.90
26212;DHT22;13951;49.516;6.094;2022-09-09T07:12:04;17.30;99.90
26212;DHT22;13951;49.516;6.094;2022-09-09T07:14:40;17.30;99.90
26212;DHT22;13951;49.516;6.094;2022-09-09T07:17:13;17.30;99.90
26212;DHT22;13951;49.516;6.094;2022-09-09T07:19:47;17.30;99.90
26212;DHT22;13951;49.516;6.094;2022-09-09T07:22:22;17.40;99.90
26212;DHT22;13951;49.516;6.094;2022-09-09T07:24:55;17.40;99.90
26212;DHT22;13951;49.516;6.094;2022-09-09T07:27:27;17.50;99.90
26212;DHT22;13951;49.516;6.094;2022-09-09T07:30:01;17.50;99.90
26212;DHT22;13951;49.516;6.094;2022-09-09T07:32:37;17.70;99.90
26212;DHT22;13951;49.516;6.094;2022-09-09T07:35:10;17.70;99.90
26212;DHT22;13951;49.516;6.094;2022-09-09T07:37:44;17.60;99.90
26212;DHT22;13951;49.516;6.094;2022-09-09T07:40:23;17.60;99.90
26212;DHT22;13951;49.516;6.094;2022-09-09T07:42:56;17.60;99.90
26212;DHT22;13951;49.516;6.094;2022-09-09T07:45:29;17.60;99.90
26212;DHT22;13951;49.516;6.094;2022-09-09T07:48:03;17.60;99.90
26212;DHT22;13951;49.516;6.094;2022-09-09T07:50:37;17.50;99.90
26212;DHT22;13951;49.516;6.094;2022-09-09T07:53:09;17.60;99.90
26212;DHT22;13951;49.516;6.094;2022-09-09T07:55:42;17.60;99.90
26212;DHT22;13951;49.516;6.094;2022-09-09T07:58:15;17.70;99.90
26212;DHT22;13951;49.516;6.094;2022-09-09T08:00:49;17.90;99.90
26212;DHT22;13951;49.516;6.094;2022-09-09T08:03:22;18.20;99.90
26212;DHT22;13951;49.516;6.094;2022-09-09T08:06:00;18.50;99.90
26212;DHT22;13951;49.516;6.094;2022-09-09T08:08:35;18.70;99.90
26212;DHT22;13951;49.516;6.094;2022-09-09T08:11:11;18.80;99.90
26212;DHT22;13951;49.516;6.094;2022-09-09T08:13:45;18.90;99.90
26212;DHT22;13951;49.516;6.094;2022-09-09T08:16:32;19.10;99.90
26212;DHT22;13951;49.516;6.094;2022-09-09T08:19:06;19.20;99.90
26212;DHT22;13951;49.516;6.094;2022-09-09T08:21:40;19.20;99.90
26212;DHT22;13951;49.516;6.094;2022-09-09T08:24:14;19.10;99.90
26212;DHT22;13951;49.516;6.094;2022-09-09T08:26:54;19.00;99.90
26212;DHT22;13951;49.516;6.094;2022-09-09T08:29:29;18.90;99.90
26212;DHT22;13951;49.516;6.094;2022-09-09T08:32:02;18.90;99.90
26212;DHT22;13951;49.516;6.094;2022-09-09T08:34:36;18.90;99.90
26212;DHT22;13951;49.516;6.094;2022-09-09T08:37:16;19.10;99.90
26212;DHT22;13951;49.516;6.094;2022-09-09T08:39:49;19.10;99.90
26212;DHT22;13951;49.516;6.094;2022-09-09T08:45:15;19.10;99.90
26212;DHT22;13951;49.516;6.094;2022-09-09T08:50:44;19.10;99.90
26212;DHT22;13951;49.516;6.094;2022-09-09T08:53:27;19.00;99.90
26212;DHT22;13951;49.516;6.094;2022-09-09T08:56:16;18.80;99.90
26212;DHT22;13951;49.516;6.094;2022-09-09T08:58:55;18.80;99.90
26212;DHT22;13951;49.516;6.094;2022-09-09T09:07:43;19.10;99.90
26212;DHT22;13951;49.516;6.094;2022-09-09T09:13:34;19.30;99.90
26212;DHT22;13951;49.516;6.094;2022-09-09T09:16:21;19.40;99.90
26212;DHT22;13951;49.516;6.094;2022-09-09T09:18:56;19.60;99.90
26212;DHT22;13951;49.516;6.094;2022-09-09T09:22:06;19.90;99.90
26212;DHT22;13951;49.516;6.094;2022-09-09T09:25:00;20.00;99.90
26212;DHT22;13951;49.516;6.094;2022-09-09T09:30:54;19.90;99.90
26212;DHT22;13951;49.516;6.094;2022-09-09T09:36:15;19.50;99.90
26212;DHT22;13951;49.516;6.094;2022-09-09T09:39:00;19.40;99.90
26212;DHT22;13951;49.516;6.094;2022-09-09T09:41:54;19.20;99.90
26212;DHT22;13951;49.516;6.094;2022-09-09T09:44:31;19.20;99.90
26212;DHT22;13951;49.516;6.094;2022-09-09T09:47:16;19.30;99.90
26212;DHT22;13951;49.516;6.094;2022-09-09T09:50:00;19.30;99.90
26212;DHT22;13951;49.516;6.094;2022-09-09T09:52:41;19.60;99.90
26212;DHT22;13951;49.516;6.094;2022-09-09T09:55:15;19.90;99.90
26212;DHT22;13951;49.516;6.094;2022-09-09T09:57:51;20.10;99.90
26212;DHT22;13951;49.516;6.094;2022-09-09T10:00:26;20.30;99.90
26212;DHT22;13951;49.516;6.094;2022-09-09T10:03:24;20.40;99.90
26212;DHT22;13951;49.516;6.094;2022-09-09T10:05:58;20.40;99.90
26212;DHT22;13951;49.516;6.094;2022-09-09T10:08:34;20.50;99.90
26212;DHT22;13951;49.516;6.094;2022-09-09T10:29:46;20.80;99.90
26212;DHT22;13951;49.516;6.094;2022-09-09T10:32:40;20.60;99.90
26212;DHT22;13951;49.516;6.094;2022-09-09T10:35:30;20.40;99.90
26212;DHT22;13951;49.516;6.094;2022-09-09T10:47:13;20.20;99.90
26212;DHT22;13951;49.516;6.094;2022-09-09T10:50:03;20.50;99.90
26212;DHT22;13951;49.516;6.094;2022-09-09T10:55:35;21.00;99.90
26212;DHT22;13951;49.516;6.094;2022-09-09T10:58:14;21.00;99.90
26212;DHT22;13951;49.516;6.094;2022-09-09T11:00:57;20.80;99.90
26212;DHT22;13951;49.516;6.094;2022-09-09T11:03:36;20.80;99.90
26212;DHT22;13951;49.516;6.094;2022-09-09T11:06:15;20.80;99.90
26212;DHT22;13951;49.516;6.094;2022-09-09T11:08:50;20.60;99.90
26212;DHT22;13951;49.516;6.094;2022-09-09T11:11:52;20.70;99.90
26212;DHT22;13951;49.516;6.094;2022-09-09T11:17:15;21.20;99.90
26212;DHT22;13951;49.516;6.094;2022-09-09T11:19:50;21.40;99.90
26212;DHT22;13951;49.516;6.094;2022-09-09T11:22:31;21.70;99.90
26212;DHT22;13951;49.516;6.094;2022-09-09T11:44:45;23.10;99.90
26212;DHT22;13951;49.516;6.094;2022-09-09T11:47:25;23.10;99.90
26212;DHT22;13951;49.516;6.094;2022-09-09T11:52:48;22.90;99.90
26212;DHT22;13951;49.516;6.094;2022-09-09T11:55:35;22.70;99.90
26212;DHT22;13951;49.516;6.094;2022-09-09T12:00:46;22.30;99.90
26212;DHT22;13951;49.516;6.094;2022-09-09T12:06:19;21.70;99.90
26212;DHT22;13951;49.516;6.094;2022-09-09T12:09:27;21.40;99.90
26212;DHT22;13951;49.516;6.094;2022-09-09T12:17:45;20.90;99.90
26212;DHT22;13951;49.516;6.094;2022-09-09T12:26:06;20.80;99.90
26212;DHT22;13951;49.516;6.094;2022-09-09T12:31:28;20.80;99.90
26212;DHT22;13951;49.516;6.094;2022-09-09T12:34:17;20.90;99.90
26212;DHT22;13951;49.516;6.094;2022-09-09T12:36:58;20.90;99.90
26212;DHT22;13951;49.516;6.094;2022-09-09T12:39:42;20.80;99.90
26212;DHT22;13951;49.516;6.094;2022-09-09T12:42:20;20.70;99.90
26212;DHT22;13951;49.516;6.094;2022-09-09T12:44:55;20.60;99.90
26212;DHT22;13951;49.516;6.094;2022-09-09T12:47:39;20.70;99.90
26212;DHT22;13951;49.516;6.094;2022-09-09T12:50:19;20.80;99.90
26212;DHT22;13951;49.516;6.094;2022-09-09T12:52:57;21.00;99.90
26212;DHT22;13951;49.516;6.094;2022-09-09T12:55:32;21.20;99.90
26212;DHT22;13951;49.516;6.094;2022-09-09T12:58:12;21.40;99.90
26212;DHT22;13951;49.516;6.094;2022-09-09T13:00:51;21.60;99.90
26212;DHT22;13951;49.516;6.094;2022-09-09T13:03:29;21.80;99.90
26212;DHT22;13951;49.516;6.094;2022-09-09T13:06:13;21.80;99.90
26212;DHT22;13951;49.516;6.094;2022-09-09T13:08:54;21.90;99.90
26212;DHT22;13951;49.516;6.094;2022-09-09T13:11:39;22.00;99.90
26212;DHT22;13951;49.516;6.094;2022-09-09T13:14:28;21.90;99.90
26212;DHT22;13951;49.516;6.094;2022-09-09T13:17:03;21.80;99.90
26212;DHT22;13951;49.516;6.094;2022-09-09T13:19:38;21.70;99.90
26212;DHT22;13951;49.516;6.094;2022-09-09T13:27:56;20.40;99.90
26212;DHT22;13951;49.516;6.094;2022-09-09T13:41:36;18.40;99.90
26212;DHT22;13951;49.516;6.094;2022-09-09T13:44:25;18.10;99.90
26212;DHT22;13951;49.516;6.094;2022-09-09T13:47:17;18.00;99.90
26212;DHT22;13951;49.516;6.094;2022-09-09T13:49:51;17.90;99.90
26212;DHT22;13951;49.516;6.094;2022-09-09T13:52:31;17.80;99.90
26212;DHT22;13951;49.516;6.094;2022-09-09T13:55:04;17.80;99.90
26212;DHT22;13951;49.516;6.094;2022-09-09T13:57:37;17.80;99.90
26212;DHT22;13951;49.516;6.094;2022-09-09T14:00:12;17.80;99.90
26212;DHT22;13951;49.516;6.094;2022-09-09T14:02:47;17.80;99.90
26212;DHT22;13951;49.516;6.094;2022-09-09T14:05:20;17.80;99.90
26212;DHT22;13951;49.516;6.094;2022-09-09T14:07:54;17.90;99.90
26212;DHT22;13951;49.516;6.094;2022-09-09T14:10:27;17.90;99.90
26212;DHT22;13951;49.516;6.094;2022-09-09T14:13:00;18.10;99.90
26212;DHT22;13951;49.516;6.094;2022-09-09T14:15:34;18.20;99.90
26212;DHT22;13951;49.516;6.094;2022-09-09T14:18:11;18.40;99.90
26212;DHT22;13951;49.516;6.094;2022-09-09T14:20:44;18.60;99.90
26212;DHT22;13951;49.516;6.094;2022-09-09T14:23:17;18.90;99.90
26212;DHT22;13951;49.516;6.094;2022-09-09T14:25:51;19.10;99.90
26212;DHT22;13951;49.516;6.094;2022-09-09T14:28:24;19.20;99.90
26212;DHT22;13951;49.516;6.094;2022-09-09T14:31:17;19.30;99.90
26212;DHT22;13951;49.516;6.094;2022-09-09T14:33:50;19.40;99.90
26212;DHT22;13951;49.516;6.094;2022-09-09T14:36:23;19.40;99.90
26212;DHT22;13951;49.516;6.094;2022-09-09T14:38:56;19.40;99.90
26212;DHT22;13951;49.516;6.094;2022-09-09T14:41:31;19.50;99.90
26212;DHT22;13951;49.516;6.094;2022-09-09T14:44:04;19.60;99.90
26212;DHT22;13951;49.516;6.094;2022-09-09T14:46:37;19.60;99.90
26212;DHT22;13951;49.516;6.094;2022-09-09T14:49:10;19.60;99.90
26212;DHT22;13951;49.516;6.094;2022-09-09T14:51:42;19.60;99.90
26212;DHT22;13951;49.516;6.094;2022-09-09T14:54:15;19.60;99.90
26212;DHT22;13951;49.516;6.094;2022-09-09T14:56:48;19.60;99.90
26212;DHT22;13951;49.516;6.094;2022-09-09T14:59:21;19.60;99.90
26212;DHT22;13951;49.516;6.094;2022-09-09T15:01:55;19.50;99.90
26212;DHT22;13951;49.516;6.094;2022-09-09T15:04:28;19.50;99.90
26212;DHT22;13951;49.516;6.094;2022-09-09T15:07:01;19.50;99.90
26212;DHT22;13951;49.516;6.094;2022-09-09T15:09:34;19.50;99.90
26212;DHT22;13951;49.516;6.094;2022-09-09T15:12:07;19.50;99.90
26212;DHT22;13951;49.516;6.094;2022-09-09T15:14:40;19.40;99.90
26212;DHT22;13951;49.516;6.094;2022-09-09T15:17:13;19.40;99.90
26212;DHT22;13951;49.516;6.094;2022-09-09T15:19:46;19.20;99.90
26212;DHT22;13951;49.516;6.094;2022-09-09T15:22:19;19.10;99.90
26212;DHT22;13951;49.516;6.094;2022-09-09T15:24:52;18.90;99.90
26212;DHT22;13951;49.516;6.094;2022-09-09T15:27:24;18.80;99.90
26212;DHT22;13951;49.516;6.094;2022-09-09T15:29:57;18.70;99.90
26212;DHT22;13951;49.516;6.094;2022-09-09T15:32:30;18.60;99.90
26212;DHT22;13951;49.516;6.094;2022-09-09T15:35:05;18.60;99.90
26212;DHT22;13951;49.516;6.094;2022-09-09T15:37:38;18.50;99.90
26212;DHT22;13951;49.516;6.094;2022-09-09T15:40:10;18.40;99.90
26212;DHT22;13951;49.516;6.094;2022-09-09T15:42:44;18.40;99.90
26212;DHT22;13951;49.516;6.094;2022-09-09T15:45:17;18.40;99.90
26212;DHT22;13951;49.516;6.094;2022-09-09T15:47:51;18.30;99.90
26212;DHT22;13951;49.516;6.094;2022-09-09T15:50:24;18.40;99.90
26212;DHT22;13951;49.516;6.094;2022-09-09T15:52:57;18.30;99.90
26212;DHT22;13951;49.516;6.094;2022-09-09T15:55:30;18.40;99.90
26212;DHT22;13951;49.516;6.094;2022-09-09T15:58:03;18.30;99.90
26212;DHT22;13951;49.516;6.094;2022-09-09T16:00:35;18.30;99.90
26212;DHT22;13951;49.516;6.094;2022-09-09T16:03:09;18.30;99.90
26212;DHT22;13951;49.516;6.094;2022-09-09T16:05:44;18.40;99.90
26212;DHT22;13951;49.516;6.094;2022-09-09T16:08:18;18.40;99.90
26212;DHT22;13951;49.516;6.094;2022-09-09T16:10:50;18.40;99.90
26212;DHT22;13951;49.516;6.094;2022-09-09T16:13:23;18.30;99.90
26212;DHT22;13951;49.516;6.094;2022-09-09T16:15:56;18.40;99.90
26212;DHT22;13951;49.516;6.094;2022-09-09T16:18:35;18.30;99.90
26212;DHT22;13951;49.516;6.094;2022-09-09T16:21:14;18.00;99.90
26212;DHT22;13951;49.516;6.094;2022-09-09T16:23:49;17.70;99.90
26212;DHT22;13951;49.516;6.094;2022-09-09T16:26:23;17.50;99.90
26212;DHT22;13951;49.516;6.094;2022-09-09T16:28:56;17.30;99.90
26212;DHT22;13951;49.516;6.094;2022-09-09T16:31:31;17.20;99.90
26212;DHT22;13951;49.516;6.094;2022-09-09T16:34:08;17.10;99.90
26212;DHT22;13951;49.516;6.094;2022-09-09T16:36:43;17.10;99.90
26212;DHT22;13951;49.516;6.094;2022-09-09T16:39:18;17.00;99.90
26212;DHT22;13951;49.516;6.094;2022-09-09T16:41:51;17.00;99.90
26212;DHT22;13951;49.516;6.094;2022-09-09T16:44:25;17.00;99.90
26212;DHT22;13951;49.516;6.094;2022-09-09T16:46:58;17.10;99.90
26212;DHT22;13951;49.516;6.094;2022-09-09T16:49:32;17.20;99.90
26212;DHT22;13951;49.516;6.094;2022-09-09T16:52:06;17.20;99.90
26212;DHT22;13951;49.516;6.094;2022-09-09T16:54:39;17.20;99.90
26212;DHT22;13951;49.516;6.094;2022-09-09T16:57:11;17.30;99.90
26212;DHT22;13951;49.516;6.094;2022-09-09T16:59:44;17.40;99.90
26212;DHT22;13951;49.516;6.094;2022-09-09T17:02:18;17.40;99.90
26212;DHT22;13951;49.516;6.094;2022-09-09T17:04:51;17.40;99.90
26212;DHT22;13951;49.516;6.094;2022-09-09T17:07:24;17.40;99.90
26212;DHT22;13951;49.516;6.094;2022-09-09T17:09:57;17.50;99.90
26212;DHT22;13951;49.516;6.094;2022-09-09T17:12:31;17.50;99.90
26212;DHT22;13951;49.516;6.094;2022-09-09T17:15:05;17.60;99.90
26212;DHT22;13951;49.516;6.094;2022-09-09T17:17:38;17.60;99.90
26212;DHT22;13951;49.516;6.094;2022-09-09T17:20:11;17.60;99.90
26212;DHT22;13951;49.516;6.094;2022-09-09T17:22:44;17.60;99.90
26212;DHT22;13951;49.516;6.094;2022-09-09T17:25:17;17.60;99.90
26212;DHT22;13951;49.516;6.094;2022-09-09T17:27:50;17.60;99.90
26212;DHT22;13951;49.516;6.094;2022-09-09T17:30:23;17.60;99.90
26212;DHT22;13951;49.516;6.094;2022-09-09T17:32:56;17.50;99.90
26212;DHT22;13951;49.516;6.094;2022-09-09T17:35:30;17.50;99.90
26212;DHT22;13951;49.516;6.094;2022-09-09T17:38:03;17.50;99.90
26212;DHT22;13951;49.516;6.094;2022-09-09T17:40:36;17.50;99.90
26212;DHT22;13951;49.516;6.094;2022-09-09T17:43:09;17.40;99.90
26212;DHT22;13951;49.516;6.094;2022-09-09T17:45:42;17.40;99.90
26212;DHT22;13951;49.516;6.094;2022-09-09T17:48:15;17.40;99.90
26212;DHT22;13951;49.516;6.094;2022-09-09T17:50:55;17.40;99.90
26212;DHT22;13951;49.516;6.094;2022-09-09T17:53:29;17.40;99.90
26212;DHT22;13951;49.516;6.094;2022-09-09T17:56:04;17.40;99.90
26212;DHT22;13951;49.516;6.094;2022-09-09T17:58:39;17.30;99.90
26212;DHT22;13951;49.516;6.094;2022-09-09T18:01:14;17.30;99.90
26212;DHT22;13951;49.516;6.094;2022-09-09T18:03:48;17.30;99.90
26212;DHT22;13951;49.516;6.094;2022-09-09T18:06:23;17.30;99.90
26212;DHT22;13951;49.516;6.094;2022-09-09T18:09:03;17.30;99.90
26212;DHT22;13951;49.516;6.094;2022-09-09T18:11:39;17.20;99.90
26212;DHT22;13951;49.516;6.094;2022-09-09T18:14:17;17.20;99.90
26212;DHT22;13951;49.516;6.094;2022-09-09T18:16:52;17.10;99.90
26212;DHT22;13951;49.516;6.094;2022-09-09T18:19:27;17.10;99.90
26212;DHT22;13951;49.516;6.094;2022-09-09T18:22:03;17.10;99.90
26212;DHT22;13951;49.516;6.094;2022-09-09T18:25:01;17.10;99.90
26212;DHT22;13951;49.516;6.094;2022-09-09T18:27:34;17.10;99.90
26212;DHT22;13951;49.516;6.094;2022-09-09T18:30:07;17.10;99.90
26212;DHT22;13951;49.516;6.094;2022-09-09T18:32:41;17.10;99.90
26212;DHT22;13951;49.516;6.094;2022-09-09T18:35:14;17.10;99.90
26212;DHT22;13951;49.516;6.094;2022-09-09T18:37:47;17.10;99.90
26212;DHT22;13951;49.516;6.094;2022-09-09T18:40:20;17.10;99.90
26212;DHT22;13951;49.516;6.094;2022-09-09T18:42:53;17.10;99.90
26212;DHT22;13951;49.516;6.094;2022-09-09T18:45:25;17.00;99.90
26212;DHT22;13951;49.516;6.094;2022-09-09T18:47:58;17.00;99.90
26212;DHT22;13951;49.516;6.094;2022-09-09T18:50:33;17.00;99.90
26212;DHT22;13951;49.516;6.094;2022-09-09T18:53:06;17.00;99.90
26212;DHT22;13951;49.516;6.094;2022-09-09T18:55:38;17.10;99.90
26212;DHT22;13951;49.516;6.094;2022-09-09T18:58:11;17.00;99.90
26212;DHT22;13951;49.516;6.094;2022-09-09T19:00:45;17.00;99.90
26212;DHT22;13951;49.516;6.094;2022-09-09T19:03:18;17.00;99.90